Time;durP1;ratioP1;P1;durP2;ratioP2;P2;SDS_P1;SDS_P2;PMS_P1;PMS_P2;Temp;Humidity;BMP_temperature;BMP_pressure;BME280_temperature;BME280_humidity;BME280_pressure;Samples;Min_cycle;Max_cycle;Signal;HPM_P1;HPM_P2
2023/01/09 00:01:39;;;;;;;5.53;2.30;;;7.40;99.90;;;;;;4936415;29;20103;-80
2023/01/09 00:04:05;;;;;;;7.43;2.58;;;7.40;99.90;;;;;;4928177;29;20140;-80
2023/01/09 00:06:31;;;;;;;7.10;2.35;;;7.40;99.90;;;;;;4936684;29;20051;-80
2023/01/09 00:08:57;;;;;;;6.65;2.40;;;7.50;99.90;;;;;;4919705;29;20044;-80
2023/01/09 00:11:23;;;;;;;6.95;2.38;;;7.50;99.90;;;;;;4920296;29;20057;-79
2023/01/09 00:13:49;;;;;;;6.65;2.47;;;7.40;99.90;;;;;;4936390;29;20083;-80
2023/01/09 00:16:15;;;;;;;6.30;2.40;;;7.40;99.90;;;;;;4920108;29;20477;-80
2023/01/09 00:18:41;;;;;;;5.50;2.50;;;7.40;99.90;;;;;;4920705;29;20059;-80
2023/01/09 00:21:08;;;;;;;7.68;2.78;;;7.50;99.90;;;;;;4935897;29;20131;-79
2023/01/09 00:23:35;;;;;;;8.05;2.60;;;7.50;99.90;;;;;;4932209;29;20055;-79
2023/01/09 00:26:07;;;;;;;6.22;2.50;;;7.50;99.90;;;;;;4931158;29;20059;-76
2023/01/09 00:28:33;;;;;;;6.65;2.50;;;7.60;99.90;;;;;;4940262;28;20051;-80
2023/01/09 00:31:01;;;;;;;5.95;2.60;;;7.60;99.90;;;;;;4936269;29;20052;-81
2023/01/09 00:33:41;;;;;;;4.82;2.30;;;7.60;99.90;;;;;;4919278;29;20091;-76
2023/01/09 00:36:08;;;;;;;8.90;3.05;;;7.60;99.90;;;;;;4936127;29;20090;-78
2023/01/09 00:38:35;;;;;;;6.70;2.97;;;7.60;99.90;;;;;;4946284;28;20044;-74
2023/01/09 00:41:02;;;;;;;9.30;3.50;;;7.60;99.90;;;;;;4931986;29;20496;-77
2023/01/09 00:43:32;;;;;;;10.20;3.08;;;7.50;99.90;;;;;;4917436;29;20047;-77
2023/01/09 00:46:02;;;;;;;8.27;3.42;;;7.50;99.90;;;;;;4942921;29;20054;-78
2023/01/09 00:48:28;;;;;;;9.90;4.00;;;7.50;99.90;;;;;;4937228;29;20504;-77
2023/01/09 00:50:57;;;;;;;9.90;4.20;;;7.40;99.90;;;;;;4919934;29;20044;-80
2023/01/09 00:53:26;;;;;;;10.90;3.85;;;7.40;99.90;;;;;;4934584;29;20393;-78
2023/01/09 00:55:53;;;;;;;10.73;4.50;;;7.40;99.90;;;;;;4935227;29;20408;-79
2023/01/09 00:58:19;;;;;;;9.43;3.95;;;7.30;99.90;;;;;;4935691;29;20429;-80
2023/01/09 01:00:44;;;;;;;7.97;3.92;;;7.40;99.90;;;;;;4935051;29;20141;-81
2023/01/09 01:03:10;;;;;;;8.38;3.33;;;7.30;99.90;;;;;;4935558;29;20173;-77
2023/01/09 01:08:20;;;;;;;6.88;2.58;;;7.40;99.90;;;;;;4920870;29;20056;-78
2023/01/09 01:10:47;;;;;;;8.13;2.58;;;7.40;99.90;;;;;;4935628;29;20044;-77
2023/01/09 01:13:13;;;;;;;7.45;2.58;;;7.40;99.90;;;;;;4935010;29;20532;-78
2023/01/09 01:15:41;;;;;;;7.60;2.40;;;7.30;99.90;;;;;;4919176;29;20556;-78
2023/01/09 01:18:07;;;;;;;6.10;2.42;;;7.30;99.90;;;;;;4934966;29;20457;-78
2023/01/09 01:20:33;;;;;;;6.15;2.70;;;7.30;99.90;;;;;;4919390;29;20043;-77
2023/01/09 01:22:58;;;;;;;6.80;2.20;;;7.20;99.90;;;;;;4934190;29;20040;-78
2023/01/09 01:25:24;;;;;;;6.32;2.30;;;7.20;99.90;;;;;;4919644;29;20079;-79
2023/01/09 01:27:50;;;;;;;5.68;2.20;;;7.20;99.90;;;;;;4934231;29;20051;-78
2023/01/09 01:30:17;;;;;;;5.18;2.05;;;7.20;99.90;;;;;;4935310;29;20048;-79
2023/01/09 01:32:43;;;;;;;5.82;1.88;;;7.10;99.90;;;;;;4934796;29;20696;-79
2023/01/09 01:35:10;;;;;;;4.32;1.95;;;7.10;99.90;;;;;;4919635;29;20044;-78
2023/01/09 01:37:37;;;;;;;5.28;1.63;;;7.10;99.90;;;;;;4933627;29;20382;-79
2023/01/09 01:40:04;;;;;;;5.28;1.60;;;7.00;99.90;;;;;;4934753;29;20126;-79
2023/01/09 01:42:30;;;;;;;4.60;1.60;;;7.00;99.90;;;;;;4933869;29;20058;-79
2023/01/09 01:45:05;;;;;;;4.32;1.55;;;7.00;99.90;;;;;;4934948;29;20058;-79
2023/01/09 01:47:47;;;;;;;5.18;1.90;;;6.90;99.90;;;;;;4947424;29;20428;-79
2023/01/09 01:50:22;;;;;;;5.25;2.10;;;6.90;99.90;;;;;;4940273;29;20063;-79
2023/01/09 01:53:05;;;;;;;6.15;2.38;;;6.90;99.90;;;;;;4917689;29;20055;-79
2023/01/09 01:55:35;;;;;;;7.25;3.08;;;6.90;99.90;;;;;;4935031;29;20496;-79
2023/01/09 01:58:04;;;;;;;7.88;3.67;;;6.90;99.90;;;;;;4934203;29;20134;-79
2023/01/09 02:00:37;;;;;;;8.07;3.95;;;6.90;99.90;;;;;;4934812;29;20059;-78
2023/01/09 02:03:05;;;;;;;8.73;4.55;;;7.00;99.90;;;;;;4933995;29;20138;-79
2023/01/09 02:05:31;;;;;;;9.60;5.05;;;7.00;99.90;;;;;;4918995;29;20063;-79
2023/01/09 02:07:57;;;;;;;8.43;4.85;;;6.90;99.90;;;;;;4917586;29;20044;-79
2023/01/09 02:10:23;;;;;;;9.70;4.13;;;6.90;99.90;;;;;;4918148;29;20140;-80
2023/01/09 02:12:49;;;;;;;9.75;5.18;;;6.90;99.90;;;;;;4941165;29;20044;-79
2023/01/09 02:15:16;;;;;;;7.38;4.20;;;6.90;99.90;;;;;;4934426;29;20502;-78
2023/01/09 02:18:14;;;;;;;8.25;4.07;;;6.90;99.90;;;;;;4918858;29;20054;-79
2023/01/09 02:20:51;;;;;;;7.55;3.75;;;6.90;99.90;;;;;;4914816;29;20102;-79
2023/01/09 02:23:58;;;;;;;7.57;3.50;;;6.90;99.90;;;;;;4932974;29;20063;-79
2023/01/09 02:27:05;;;;;;;7.60;3.15;;;6.80;99.90;;;;;;4934918;29;20114;-80
2023/01/09 02:29:59;;;;;;;8.13;2.92;;;6.80;99.90;;;;;;4909345;29;20059;-80
2023/01/09 02:32:54;;;;;;;7.35;2.90;;;6.80;99.90;;;;;;4930509;29;20052;-79
2023/01/09 02:35:37;;;;;;;6.30;2.35;;;6.80;99.90;;;;;;4945104;28;20489;-79
2023/01/09 02:38:16;;;;;;;5.82;2.45;;;6.80;99.90;;;;;;4933393;29;20392;-79
2023/01/09 02:41:14;;;;;;;7.30;2.42;;;6.70;99.90;;;;;;4934148;29;20055;-80
2023/01/09 02:43:40;;;;;;;6.75;2.50;;;6.70;99.90;;;;;;4909847;29;20094;-79
2023/01/09 02:46:18;;;;;;;7.40;2.30;;;6.70;99.90;;;;;;4945913;29;20127;-80
2023/01/09 02:48:44;;;;;;;7.32;2.35;;;6.70;99.90;;;;;;4933850;29;20400;-79
2023/01/09 02:51:29;;;;;;;6.18;2.25;;;6.70;99.90;;;;;;4934280;29;20047;-79
2023/01/09 02:54:00;;;;;;;6.15;2.20;;;6.70;99.90;;;;;;4936497;29;20052;-79
2023/01/09 02:57:04;;;;;;;5.60;2.30;;;6.70;99.90;;;;;;4935391;29;20047;-79
2023/01/09 02:59:44;;;;;;;7.80;2.42;;;6.60;99.90;;;;;;4935533;29;20047;-80
2023/01/09 03:02:35;;;;;;;5.78;2.28;;;6.60;99.90;;;;;;4933697;29;20055;-79
2023/01/09 03:05:22;;;;;;;5.97;2.30;;;6.50;99.90;;;;;;4934596;29;20468;-80
2023/01/09 03:08:15;;;;;;;6.38;2.40;;;6.50;99.90;;;;;;4940781;29;20494;-80
2023/01/09 03:10:58;;;;;;;6.25;2.50;;;6.30;99.90;;;;;;4943023;29;20256;-80
2023/01/09 03:13:30;;;;;;;6.15;2.30;;;6.30;99.90;;;;;;4937589;29;20063;-79
2023/01/09 03:15:58;;;;;;;7.00;2.20;;;6.30;99.90;;;;;;4921704;29;20130;-79
2023/01/09 03:18:27;;;;;;;7.13;2.53;;;6.20;99.90;;;;;;4937109;29;20152;-79
2023/01/09 03:20:54;;;;;;;8.50;2.50;;;6.10;99.90;;;;;;4937008;29;20040;-79
2023/01/09 03:23:20;;;;;;;5.75;2.67;;;6.10;99.90;;;;;;4936572;29;20175;-79
2023/01/09 03:25:45;;;;;;;6.93;2.72;;;6.10;99.90;;;;;;4937672;29;20126;-79
2023/01/09 03:28:31;;;;;;;8.68;2.75;;;6.00;99.90;;;;;;4936573;29;20044;-79
2023/01/09 03:30:57;;;;;;;7.90;2.65;;;6.00;99.90;;;;;;4921199;29;20066;-79
2023/01/09 03:33:23;;;;;;;5.63;2.50;;;6.00;99.90;;;;;;4934752;29;20048;-79
2023/01/09 03:35:49;;;;;;;7.90;2.95;;;6.00;99.90;;;;;;4917913;29;20044;-79
2023/01/09 03:38:14;;;;;;;7.15;2.90;;;6.00;99.90;;;;;;4930612;29;20487;-79
2023/01/09 03:40:43;;;;;;;9.10;3.40;;;5.90;99.90;;;;;;4933878;29;20076;-80
2023/01/09 03:43:09;;;;;;;8.90;3.03;;;5.90;99.90;;;;;;4913698;29;20162;-79
2023/01/09 03:45:35;;;;;;;6.20;2.60;;;5.80;99.90;;;;;;4936666;29;20218;-79
2023/01/09 03:48:01;;;;;;;7.22;3.17;;;5.80;99.90;;;;;;4920346;29;20055;-79
2023/01/09 03:50:26;;;;;;;8.80;3.45;;;5.70;99.90;;;;;;4921033;29;20052;-80
2023/01/09 03:52:52;;;;;;;9.57;3.38;;;5.60;99.90;;;;;;4919346;29;20123;-80
2023/01/09 03:55:18;;;;;;;10.57;4.07;;;5.60;99.90;;;;;;4937016;29;20083;-80
2023/01/09 03:57:43;;;;;;;8.73;3.55;;;5.60;99.90;;;;;;4937125;29;20051;-80
2023/01/09 04:00:10;;;;;;;7.78;3.75;;;5.50;99.90;;;;;;4922390;29;20110;-80
2023/01/09 04:02:35;;;;;;;9.20;4.20;;;5.50;99.90;;;;;;4936433;29;20055;-80
2023/01/09 04:05:01;;;;;;;9.50;4.03;;;5.50;99.90;;;;;;4936435;29;20373;-79
2023/01/09 04:07:27;;;;;;;9.93;4.45;;;5.40;99.90;;;;;;4934513;29;20162;-80
2023/01/09 04:09:53;;;;;;;9.18;4.80;;;5.40;99.90;;;;;;4936870;29;20504;-79
2023/01/09 04:12:18;;;;;;;9.60;4.60;;;5.30;99.90;;;;;;4920359;29;20054;-79
2023/01/09 04:14:44;;;;;;;11.38;4.88;;;5.30;99.90;;;;;;4936557;29;20044;-79
2023/01/09 04:17:10;;;;;;;10.88;5.18;;;5.30;99.90;;;;;;4918975;29;20048;-80
2023/01/09 04:19:35;;;;;;;11.90;5.85;;;5.30;99.90;;;;;;4913366;29;20044;-81
2023/01/09 04:22:01;;;;;;;12.65;5.80;;;5.40;99.90;;;;;;4929616;29;20118;-80
2023/01/09 04:24:27;;;;;;;14.57;7.50;;;5.40;99.90;;;;;;4935560;29;20051;-81
2023/01/09 04:26:55;;;;;;;12.43;7.00;;;5.40;99.90;;;;;;4919962;29;20048;-80
2023/01/09 04:29:20;;;;;;;13.82;7.43;;;5.50;99.90;;;;;;4936121;29;20048;-81
2023/01/09 04:31:46;;;;;;;12.68;7.93;;;5.50;99.90;;;;;;4936340;29;20054;-81
2023/01/09 04:34:12;;;;;;;13.35;8.38;;;5.50;99.90;;;;;;4919654;29;20526;-80
2023/01/09 04:36:38;;;;;;;15.30;8.85;;;5.50;99.90;;;;;;4936402;29;20056;-80
2023/01/09 04:39:04;;;;;;;16.63;9.48;;;5.50;99.90;;;;;;4935206;29;20074;-80
2023/01/09 04:41:47;;;;;;;15.43;9.90;;;5.40;99.90;;;;;;4935417;29;20476;-81
2023/01/09 04:44:14;;;;;;;16.38;9.98;;;5.50;99.90;;;;;;4932620;29;20063;-80
2023/01/09 04:46:40;;;;;;;18.08;9.73;;;5.40;99.90;;;;;;4939594;29;20134;-80
2023/01/09 04:49:05;;;;;;;14.77;9.15;;;5.40;99.90;;;;;;4923560;28;20130;-79
2023/01/09 04:51:31;;;;;;;19.02;10.35;;;5.40;99.90;;;;;;4938334;29;20114;-81
2023/01/09 04:53:57;;;;;;;18.00;10.25;;;5.30;99.90;;;;;;4937547;28;20047;-80
2023/01/09 04:56:23;;;;;;;19.50;10.98;;;5.30;99.90;;;;;;4938991;29;20086;-79
2023/01/09 04:58:48;;;;;;;18.55;11.15;;;5.30;99.90;;;;;;4938543;29;20550;-80
2023/01/09 05:01:14;;;;;;;16.25;10.35;;;5.30;99.90;;;;;;4906297;29;20072;-78
2023/01/09 05:03:40;;;;;;;17.85;11.27;;;5.30;99.90;;;;;;4943933;29;20079;-79
2023/01/09 05:06:06;;;;;;;17.98;11.98;;;5.30;99.90;;;;;;4938027;28;20090;-80
2023/01/09 05:08:31;;;;;;;18.38;12.15;;;5.20;99.90;;;;;;4906329;29;20054;-78
2023/01/09 05:10:57;;;;;;;20.30;13.13;;;5.20;99.90;;;;;;4922274;28;20049;-79
2023/01/09 05:13:23;;;;;;;22.52;13.57;;;5.10;99.90;;;;;;4938204;29;20055;-80
2023/01/09 05:15:48;;;;;;;22.40;13.60;;;5.20;99.90;;;;;;4938895;29;20079;-81
2023/01/09 05:18:14;;;;;;;23.42;13.98;;;5.20;99.90;;;;;;4938226;28;20055;-79
2023/01/09 05:20:40;;;;;;;21.92;13.98;;;5.30;99.90;;;;;;4937854;29;20066;-79
2023/01/09 05:23:05;;;;;;;24.63;15.63;;;5.30;99.90;;;;;;4919890;28;20059;-80
2023/01/09 05:25:31;;;;;;;24.95;15.10;;;5.30;99.90;;;;;;4937830;29;20066;-80
2023/01/09 05:27:58;;;;;;;21.75;14.07;;;5.40;99.90;;;;;;4937139;28;20104;-79
2023/01/09 05:30:24;;;;;;;21.20;14.68;;;5.40;99.90;;;;;;4927768;29;20059;-81
2023/01/09 05:32:50;;;;;;;21.40;13.48;;;5.40;99.90;;;;;;4937678;29;20596;-80
2023/01/09 05:35:15;;;;;;;21.02;13.82;;;5.40;99.90;;;;;;4906396;29;20051;-79
2023/01/09 05:37:41;;;;;;;19.42;13.70;;;5.40;99.90;;;;;;4936806;29;20487;-79
2023/01/09 05:40:07;;;;;;;20.27;12.73;;;5.30;99.90;;;;;;4941702;29;20062;-80
2023/01/09 05:42:33;;;;;;;22.90;12.80;;;5.30;99.90;;;;;;4943691;29;20055;-77
2023/01/09 05:44:59;;;;;;;18.52;12.38;;;5.20;99.90;;;;;;4936823;29;20054;-79
2023/01/09 05:47:25;;;;;;;18.13;11.32;;;5.20;99.90;;;;;;4937096;29;20082;-79
2023/01/09 05:49:50;;;;;;;20.13;11.23;;;5.10;99.90;;;;;;4937351;29;20467;-81
2023/01/09 05:52:16;;;;;;;18.30;11.27;;;5.10;99.90;;;;;;4919170;28;20082;-80
2023/01/09 05:54:42;;;;;;;17.75;10.27;;;5.10;99.90;;;;;;4934938;29;20058;-80
2023/01/09 05:57:07;;;;;;;15.25;10.43;;;5.10;99.90;;;;;;4919500;29;20094;-80
2023/01/09 05:59:33;;;;;;;20.52;10.95;;;5.20;99.90;;;;;;4931616;29;20126;-81
2023/01/09 06:01:59;;;;;;;17.52;10.98;;;5.20;99.90;;;;;;4935885;29;20054;-80
2023/01/09 06:04:28;;;;;;;17.90;11.75;;;5.20;99.90;;;;;;4932129;28;20074;-79
2023/01/09 06:06:54;;;;;;;18.13;10.90;;;6.00;99.90;;;;;;4951899;28;20368;-81
2023/01/09 06:09:20;;;;;;;19.05;11.10;;;5.10;99.90;;;;;;4930523;28;20047;-80
2023/01/09 06:11:46;;;;;;;18.90;11.10;;;5.20;99.90;;;;;;4924077;29;20567;-78
2023/01/09 06:14:12;;;;;;;20.63;11.20;;;5.20;99.90;;;;;;4921031;29;20039;-79
2023/01/09 06:16:37;;;;;;;20.13;11.35;;;5.20;99.90;;;;;;4931139;29;20051;-80
2023/01/09 06:19:04;;;;;;;18.80;10.55;;;5.20;99.90;;;;;;4931249;29;20484;-82
2023/01/09 06:21:31;;;;;;;17.50;11.75;;;5.30;99.90;;;;;;4925032;28;21238;-80
2023/01/09 06:23:57;;;;;;;17.95;10.75;;;5.30;99.90;;;;;;4929640;29;20049;-79
2023/01/09 06:26:24;;;;;;;21.48;11.20;;;5.30;99.90;;;;;;4918506;28;20055;-80
2023/01/09 06:28:50;;;;;;;19.48;11.45;;;5.40;99.90;;;;;;4936473;29;20114;-81
2023/01/09 06:31:16;;;;;;;20.77;11.18;;;5.40;99.90;;;;;;4900710;29;20122;-79
2023/01/09 06:33:42;;;;;;;18.48;11.27;;;5.40;99.90;;;;;;4935918;29;20468;-82
2023/01/09 06:36:07;;;;;;;16.92;10.45;;;5.40;99.90;;;;;;4935539;28;20395;-78
2023/01/09 06:38:33;;;;;;;15.23;10.15;;;5.40;99.90;;;;;;4934666;29;20094;-80
2023/01/09 06:40:59;;;;;;;17.63;9.55;;;5.40;99.90;;;;;;4947249;28;20558;-79
2023/01/09 06:43:25;;;;;;;16.42;9.48;;;5.40;99.90;;;;;;4940672;29;20047;-80
2023/01/09 06:45:50;;;;;;;14.80;8.52;;;5.50;99.90;;;;;;4941234;29;20070;-80
2023/01/09 06:48:16;;;;;;;15.02;9.20;;;5.50;99.90;;;;;;4924120;28;20059;-80
2023/01/09 06:50:42;;;;;;;15.35;9.07;;;5.50;99.90;;;;;;4939106;28;20071;-79
2023/01/09 06:53:09;;;;;;;14.45;8.00;;;5.50;99.90;;;;;;4923809;29;20491;-80
2023/01/09 06:55:35;;;;;;;13.27;7.97;;;5.50;99.90;;;;;;4925127;29;20127;-80
2023/01/09 06:58:01;;;;;;;14.20;7.95;;;5.50;99.90;;;;;;4940616;29;20502;-80
2023/01/09 07:00:27;;;;;;;12.70;7.25;;;5.40;99.90;;;;;;4940542;29;20130;-79
2023/01/09 07:02:52;;;;;;;12.52;6.70;;;5.40;99.90;;;;;;4939447;29;20502;-79
2023/01/09 07:05:18;;;;;;;13.38;6.60;;;5.40;99.90;;;;;;4925267;29;20403;-80
2023/01/09 07:07:44;;;;;;;12.63;6.50;;;5.30;99.90;;;;;;4939167;28;20090;-80
2023/01/09 07:10:10;;;;;;;13.07;6.75;;;5.20;99.90;;;;;;4941051;29;20524;-80
2023/01/09 07:12:36;;;;;;;10.85;5.95;;;5.20;99.90;;;;;;4940791;29;20396;-80
2023/01/09 07:15:02;;;;;;;13.45;5.85;;;5.10;99.90;;;;;;4953557;29;20047;-80
2023/01/09 07:17:28;;;;;;;10.65;5.65;;;5.10;99.90;;;;;;4937313;29;20119;-81
2023/01/09 07:19:54;;;;;;;10.27;5.25;;;5.10;99.90;;;;;;4935409;29;20043;-81
2023/01/09 07:22:19;;;;;;;10.70;5.78;;;5.10;99.90;;;;;;4936603;29;20432;-81
2023/01/09 07:24:46;;;;;;;11.93;5.50;;;5.00;99.90;;;;;;4905328;28;20472;-81
2023/01/09 07:27:12;;;;;;;10.70;6.05;;;5.00;99.90;;;;;;4940083;29;20058;-81
2023/01/09 07:29:37;;;;;;;12.27;5.57;;;5.00;99.90;;;;;;4934678;29;20055;-79
2023/01/09 07:32:03;;;;;;;11.93;5.28;;;5.00;99.90;;;;;;4924306;29;20048;-78
2023/01/09 07:34:29;;;;;;;12.90;6.13;;;4.90;99.90;;;;;;4932715;29;20130;-79
2023/01/09 07:36:55;;;;;;;11.77;5.78;;;4.90;99.90;;;;;;4937826;29;20419;-80
2023/01/09 07:39:20;;;;;;;12.27;5.82;;;4.90;99.90;;;;;;4937887;28;20515;-79
2023/01/09 07:41:47;;;;;;;13.18;5.78;;;4.90;99.90;;;;;;4940720;29;20126;-79
2023/01/09 07:44:13;;;;;;;11.35;5.88;;;4.90;99.90;;;;;;4908187;29;20055;-80
2023/01/09 07:46:39;;;;;;;11.90;5.93;;;4.90;99.90;;;;;;4956293;28;20054;-79
2023/01/09 07:49:06;;;;;;;15.50;5.78;;;5.00;99.90;;;;;;4936663;29;20465;-79
2023/01/09 07:51:32;;;;;;;12.98;5.97;;;5.00;99.90;;;;;;4921207;29;20055;-78
2023/01/09 07:53:58;;;;;;;12.23;5.68;;;5.10;99.90;;;;;;4920013;29;20504;-78
2023/01/09 07:56:23;;;;;;;10.45;5.07;;;5.10;99.90;;;;;;4937593;29;20044;-79
2023/01/09 07:58:49;;;;;;;11.10;5.32;;;5.20;99.90;;;;;;4936969;29;20054;-78
2023/01/09 08:01:15;;;;;;;12.90;5.18;;;5.20;99.90;;;;;;4932570;29;20039;-79
2023/01/09 08:03:41;;;;;;;13.38;5.15;;;5.20;99.90;;;;;;4934969;29;20055;-79
2023/01/09 08:06:07;;;;;;;10.93;5.47;;;5.20;99.90;;;;;;4903693;29;20127;-78
2023/01/09 08:08:33;;;;;;;14.20;5.30;;;5.20;99.90;;;;;;4935173;29;20051;-79
2023/01/09 08:10:58;;;;;;;13.10;4.53;;;5.20;99.90;;;;;;4936503;29;20381;-79
2023/01/09 08:13:24;;;;;;;12.93;5.10;;;5.30;99.90;;;;;;4904807;29;20058;-80
2023/01/09 08:15:50;;;;;;;13.77;5.20;;;5.30;99.90;;;;;;4933437;29;20053;-79
2023/01/09 08:18:15;;;;;;;11.63;4.85;;;5.30;99.90;;;;;;4935667;29;20048;-80
2023/01/09 08:20:41;;;;;;;10.90;4.60;;;5.40;99.90;;;;;;4937041;29;20063;-79
2023/01/09 08:23:07;;;;;;;14.98;5.05;;;5.40;99.90;;;;;;4940441;29;20162;-81
2023/01/09 08:25:32;;;;;;;13.18;4.88;;;5.40;99.90;;;;;;4939811;29;20481;-79
2023/01/09 08:27:58;;;;;;;12.73;5.20;;;5.40;99.90;;;;;;4946952;29;20054;-78
2023/01/09 08:30:24;;;;;;;13.80;4.88;;;5.50;99.90;;;;;;4945812;29;20640;-78
2023/01/09 08:32:52;;;;;;;14.20;4.82;;;5.50;99.90;;;;;;4945958;29;20122;-79
2023/01/09 08:35:17;;;;;;;10.88;5.10;;;5.50;99.90;;;;;;4950257;29;20047;-80
2023/01/09 08:37:47;;;;;;;15.60;4.45;;;5.50;99.90;;;;;;4931403;29;20047;-79
2023/01/09 08:40:14;;;;;;;13.38;5.45;;;5.60;99.90;;;;;;4948647;29;20039;-79
2023/01/09 08:48:10;;;;;;;14.35;5.43;;;5.70;99.90;;;;;;4949287;29;20085;-78
2023/01/09 08:50:35;;;;;;;14.07;4.97;;;5.70;99.90;;;;;;4942924;29;20055;-78
2023/01/09 08:53:01;;;;;;;11.88;4.95;;;5.70;99.90;;;;;;4931411;29;20480;-77
2023/01/09 08:55:27;;;;;;;14.40;5.10;;;5.80;99.90;;;;;;4949420;29;20059;-76
2023/01/09 08:57:54;;;;;;;12.52;5.20;;;5.80;99.90;;;;;;4946507;29;20070;-78
2023/01/09 09:00:22;;;;;;;12.13;4.70;;;5.80;99.90;;;;;;4947739;29;20043;-78
2023/01/09 09:02:56;;;;;;;11.60;5.07;;;5.90;99.90;;;;;;4945793;28;20047;-78
2023/01/09 09:05:23;;;;;;;11.70;5.15;;;5.90;99.90;;;;;;4938840;29;20056;-77
2023/01/09 09:07:50;;;;;;;12.48;4.80;;;5.90;99.90;;;;;;4949997;29;20149;-78
2023/01/09 09:10:16;;;;;;;13.80;5.15;;;5.90;99.90;;;;;;4926904;29;20134;-78
2023/01/09 09:12:43;;;;;;;10.50;5.07;;;5.90;99.90;;;;;;4942722;29;20094;-78
2023/01/09 09:15:18;;;;;;;10.30;4.60;;;6.00;99.90;;;;;;4944716;29;20107;-77
2023/01/09 09:17:47;;;;;;;16.50;5.28;;;6.00;99.90;;;;;;4920179;29;20067;-78
2023/01/09 09:20:13;;;;;;;11.20;5.03;;;6.10;99.90;;;;;;4943415;29;20051;-78
2023/01/09 09:22:39;;;;;;;12.15;5.20;;;6.10;99.90;;;;;;4947240;28;20074;-78
2023/01/09 09:25:05;;;;;;;11.43;5.35;;;6.20;99.90;;;;;;4946710;29;20054;-78
2023/01/09 09:27:32;;;;;;;11.70;4.82;;;6.20;99.90;;;;;;4949901;29;20526;-78
2023/01/09 09:29:57;;;;;;;13.00;4.95;;;6.20;99.90;;;;;;4946551;29;20488;-78
2023/01/09 09:32:23;;;;;;;12.23;4.60;;;6.30;99.90;;;;;;4946810;29;20111;-77
2023/01/09 09:34:49;;;;;;;12.07;4.78;;;6.30;99.90;;;;;;4929650;29;20047;-79
2023/01/09 09:37:15;;;;;;;12.13;4.60;;;6.30;99.90;;;;;;4948884;28;20101;-78
2023/01/09 09:39:40;;;;;;;11.93;4.70;;;6.40;99.90;;;;;;4937080;29;20469;-78
2023/01/09 09:45:31;;;;;;;14.18;5.20;;;6.40;99.90;;;;;;4948042;29;20055;-80
2023/01/09 09:48:08;;;;;;;11.77;4.90;;;6.50;99.90;;;;;;4943808;29;20499;-80
2023/01/09 09:51:11;;;;;;;12.68;5.00;;;6.50;99.90;;;;;;4947676;29;20062;-78
2023/01/09 09:53:47;;;;;;;12.70;4.40;;;6.60;99.90;;;;;;4945098;29;20059;-79
2023/01/09 09:56:16;;;;;;;10.55;4.20;;;6.70;99.90;;;;;;4942948;29;20078;-77
2023/01/09 09:58:52;;;;;;;12.68;4.32;;;6.70;99.90;;;;;;4950440;29;20091;-78
2023/01/09 10:01:24;;;;;;;10.38;4.05;;;6.80;99.90;;;;;;4946409;29;20420;-78
2023/01/09 10:03:54;;;;;;;8.77;4.07;;;6.80;99.90;;;;;;4946003;29;20110;-78
2023/01/09 10:06:29;;;;;;;11.65;4.82;;;6.90;99.90;;;;;;4938618;29;20811;-78
2023/01/09 10:09:01;;;;;;;10.52;3.88;;;6.80;99.90;;;;;;4923970;29;20688;-79
2023/01/09 10:11:44;;;;;;;9.98;4.10;;;6.90;99.90;;;;;;4937878;29;20118;-78
2023/01/09 10:14:11;;;;;;;13.05;3.90;;;6.90;99.90;;;;;;4948493;28;20055;-78
2023/01/09 10:16:54;;;;;;;11.18;4.00;;;7.00;99.90;;;;;;4946744;29;20055;-79
2023/01/09 10:19:32;;;;;;;13.48;4.03;;;6.90;99.90;;;;;;4964437;28;20471;-78
2023/01/09 10:22:15;;;;;;;9.52;3.35;;;6.90;99.90;;;;;;4936643;29;20063;-76
2023/01/09 10:25:01;;;;;;;12.35;3.60;;;6.90;99.90;;;;;;4943195;29;20506;-79
2023/01/09 10:28:02;;;;;;;8.95;3.17;;;6.90;99.90;;;;;;4949198;29;20059;-77
2023/01/09 10:30:59;;;;;;;10.05;3.42;;;6.90;99.90;;;;;;4947700;29;20083;-78
2023/01/09 10:33:40;;;;;;;9.20;3.53;;;6.90;99.90;;;;;;4943962;29;20571;-80
2023/01/09 10:36:29;;;;;;;10.18;3.65;;;6.90;99.90;;;;;;4952287;29;20062;-81
2023/01/09 10:38:58;;;;;;;9.32;3.15;;;6.90;99.90;;;;;;4953650;29;20055;-77
2023/01/09 10:41:33;;;;;;;9.88;3.67;;;6.90;99.90;;;;;;4953166;29;20404;-79
2023/01/09 10:44:06;;;;;;;9.70;3.78;;;6.90;99.90;;;;;;4947125;29;20055;-79
2023/01/09 10:46:46;;;;;;;9.43;3.35;;;6.90;99.90;;;;;;4936134;29;20044;-79
2023/01/09 10:49:16;;;;;;;10.70;3.83;;;7.00;99.90;;;;;;4953191;29;20091;-79
2023/01/09 10:51:49;;;;;;;12.23;4.07;;;6.90;99.90;;;;;;4952079;29;20447;-79
2023/01/09 10:54:22;;;;;;;11.52;4.40;;;7.00;99.90;;;;;;4953090;29;20075;-78
2023/01/09 10:56:59;;;;;;;7.35;3.70;;;6.90;99.90;;;;;;4948575;29;20062;-78
2023/01/09 10:59:25;;;;;;;9.90;4.35;;;6.90;99.90;;;;;;4946434;29;20056;-78
2023/01/09 11:01:52;;;;;;;9.35;4.35;;;7.00;99.90;;;;;;4953313;29;20062;-80
2023/01/09 11:04:28;;;;;;;8.98;4.25;;;7.00;99.90;;;;;;4953375;29;20066;-79
2023/01/09 11:07:10;;;;;;;10.55;4.57;;;7.00;99.90;;;;;;4935513;29;20086;-79
2023/01/09 11:10:10;;;;;;;9.40;4.40;;;7.70;99.90;;;;;;4948069;29;20131;-80
2023/01/09 11:12:37;;;;;;;9.60;4.55;;;7.10;99.90;;;;;;4933776;29;20110;-80
2023/01/09 11:15:29;;;;;;;8.70;4.90;;;7.10;99.90;;;;;;4951478;29;20384;-79
2023/01/09 11:18:16;;;;;;;8.13;5.03;;;7.10;99.90;;;;;;4944144;29;20507;-80
2023/01/09 11:20:42;;;;;;;8.82;5.57;;;7.10;99.90;;;;;;4943927;29;20051;-80
2023/01/09 11:23:33;;;;;;;10.85;5.75;;;7.10;99.90;;;;;;4927550;29;20051;-81
2023/01/09 11:26:01;;;;;;;10.25;5.65;;;7.10;99.90;;;;;;4947407;28;20078;-79
2023/01/09 11:28:27;;;;;;;10.85;6.07;;;7.00;99.90;;;;;;4946824;29;20187;-79
2023/01/09 11:30:59;;;;;;;10.20;6.32;;;7.10;99.90;;;;;;4960979;28;20559;-79
2023/01/09 11:33:36;;;;;;;12.52;5.88;;;7.10;99.90;;;;;;4946247;29;20081;-80
2023/01/09 11:36:06;;;;;;;11.80;5.75;;;7.10;99.90;;;;;;4948456;29;20039;-79
2023/01/09 11:39:04;;;;;;;13.65;6.00;;;7.10;99.90;;;;;;4944292;29;20048;-80
2023/01/09 11:41:34;;;;;;;9.32;5.50;;;7.10;99.90;;;;;;4942209;29;20061;-80
2023/01/09 11:44:03;;;;;;;9.75;5.70;;;7.10;99.90;;;;;;4945275;29;20368;-80
2023/01/09 11:46:42;;;;;;;9.15;5.97;;;7.10;99.90;;;;;;4945529;29;20074;-80
2023/01/09 11:49:12;;;;;;;9.32;5.97;;;7.10;99.90;;;;;;4945551;29;20059;-80
2023/01/09 11:51:38;;;;;;;11.35;6.35;;;7.10;99.90;;;;;;4940930;29;20044;-80
2023/01/09 11:54:31;;;;;;;10.20;7.13;;;7.10;99.90;;;;;;4944412;29;20106;-80
2023/01/09 11:56:57;;;;;;;10.05;6.63;;;7.10;99.90;;;;;;4939338;29;20055;-79
2023/01/09 11:59:29;;;;;;;10.70;7.03;;;7.00;99.90;;;;;;4906064;29;20070;-80
2023/01/09 12:02:03;;;;;;;13.20;8.27;;;7.00;99.90;;;;;;4942807;29;20539;-79
2023/01/09 12:04:32;;;;;;;13.85;8.77;;;7.00;99.90;;;;;;4942571;29;20090;-79
2023/01/09 12:07:28;;;;;;;15.07;8.70;;;7.00;99.90;;;;;;4944826;29;20079;-77
2023/01/09 12:10:01;;;;;;;12.52;8.77;;;7.00;99.90;;;;;;4903002;29;20064;-79
2023/01/09 12:12:30;;;;;;;15.38;9.02;;;7.00;99.90;;;;;;4939061;29;20503;-79
2023/01/09 12:15:48;;;;;;;14.30;8.88;;;7.00;99.90;;;;;;4957250;28;20489;-78
2023/01/09 12:18:31;;;;;;;14.18;9.23;;;7.00;99.90;;;;;;4897210;29;20058;-80
2023/01/09 12:21:14;;;;;;;14.85;9.75;;;7.00;99.90;;;;;;4919065;29;20991;-78
2023/01/09 12:24:04;;;;;;;14.50;9.98;;;7.00;99.90;;;;;;4941203;29;20052;-79
2023/01/09 12:26:31;;;;;;;15.93;10.82;;;7.00;99.90;;;;;;4924367;29;20054;-79
2023/01/09 12:29:32;;;;;;;15.68;10.63;;;7.00;99.90;;;;;;4941027;29;20444;-79
2023/01/09 12:32:25;;;;;;;17.85;10.98;;;7.00;99.90;;;;;;4937055;29;20132;-79
2023/01/09 12:34:59;;;;;;;17.40;11.57;;;7.00;99.90;;;;;;4941771;29;20515;-78
2023/01/09 12:37:55;;;;;;;15.65;11.43;;;7.00;99.90;;;;;;4938613;29;20091;-78
2023/01/09 12:41:26;;;;;;;19.05;12.18;;;7.00;99.90;;;;;;4924598;29;20050;-79
2023/01/09 12:44:19;;;;;;;19.23;12.65;;;7.00;99.90;;;;;;4910424;29;20083;-79
2023/01/09 12:47:21;;;;;;;17.35;12.25;;;7.00;99.90;;;;;;4948708;28;20047;-80
2023/01/09 12:50:08;;;;;;;17.88;11.85;;;7.10;99.90;;;;;;4950512;28;20129;-80
2023/01/09 12:52:47;;;;;;;18.08;12.07;;;7.10;99.90;;;;;;4949464;28;20066;-80
2023/01/09 12:55:17;;;;;;;17.48;12.23;;;7.10;99.90;;;;;;4950929;28;20078;-79
2023/01/09 12:57:48;;;;;;;18.02;12.38;;;7.20;99.90;;;;;;4954462;28;20110;-80
2023/01/09 13:00:29;;;;;;;19.95;12.73;;;7.10;99.90;;;;;;4953367;28;20046;-80
2023/01/09 13:03:09;;;;;;;16.27;12.30;;;7.10;99.90;;;;;;4950179;28;20066;-80
2023/01/09 13:05:39;;;;;;;18.08;12.00;;;7.10;99.90;;;;;;4954066;28;20045;-80
2023/01/09 13:08:33;;;;;;;18.08;13.25;;;7.20;99.90;;;;;;4948046;28;20553;-79
2023/01/09 13:11:10;;;;;;;18.70;12.52;;;7.00;99.90;;;;;;4924398;28;20312;-77
2023/01/09 13:13:57;;;;;;;17.60;12.38;;;7.20;99.90;;;;;;4932482;28;20057;-80
2023/01/09 13:16:28;;;;;;;17.02;11.80;;;7.20;99.90;;;;;;4964395;28;20479;-80
2023/01/09 13:19:00;;;;;;;16.55;12.50;;;7.20;99.90;;;;;;4926514;28;20114;-80
2023/01/09 13:21:26;;;;;;;21.75;12.38;;;7.20;99.90;;;;;;4945167;28;20054;-80